sensor_id;sensor_type;location;lat;lon;timestamp;pressure;altitude;pressure_sealevel;temperature;humidity
69214;BME280;56325;47.030;18.518;2023-04-01T00:00:09;99150.00;;;10.52;89.57
69214;BME280;56325;47.030;18.518;2023-04-01T00:02:44;99143.50;;;10.49;90.48
69214;BME280;56325;47.030;18.518;2023-04-01T00:05:19;99137.84;;;10.59;90.93
69214;BME280;56325;47.030;18.518;2023-04-01T00:07:55;99129.41;;;10.68;90.08
69214;BME280;56325;47.030;18.518;2023-04-01T00:10:30;99134.28;;;10.78;89.97
69214;BME280;56325;47.030;18.518;2023-04-01T00:13:06;99132.00;;;10.77;88.75
69214;BME280;56325;47.030;18.518;2023-04-01T00:15:42;99124.25;;;10.75;89.12
69214;BME280;56325;47.030;18.518;2023-04-01T00:18:17;99125.97;;;10.73;89.26
69214;BME280;56325;47.030;18.518;2023-04-01T00:20:52;99120.41;;;10.67;89.80
69214;BME280;56325;47.030;18.518;2023-04-01T00:23:28;99122.41;;;10.67;89.25
69214;BME280;56325;47.030;18.518;2023-04-01T00:26:03;99123.22;;;10.73;89.11
69214;BME280;56325;47.030;18.518;2023-04-01T00:28:38;99133.34;;;10.87;88.12
69214;BME280;56325;47.030;18.518;2023-04-01T00:31:14;99128.56;;;10.56;89.21
69214;BME280;56325;47.030;18.518;2023-04-01T00:33:48;99128.78;;;10.78;88.37
69214;BME280;56325;47.030;18.518;2023-04-01T00:36:23;99129.63;;;10.64;89.07
69214;BME280;56325;47.030;18.518;2023-04-01T00:38:59;99130.19;;;10.68;88.90
69214;BME280;56325;47.030;18.518;2023-04-01T00:41:34;99126.25;;;10.49;89.36
69214;BME280;56325;47.030;18.518;2023-04-01T00:44:15;99123.81;;;10.57;89.26
69214;BME280;56325;47.030;18.518;2023-04-01T00:46:51;99125.00;;;10.50;89.54
69214;BME280;56325;47.030;18.518;2023-04-01T00:49:29;99120.97;;;10.45;89.39
69214;BME280;56325;47.030;18.518;2023-04-01T00:52:07;99119.03;;;10.51;89.43
69214;BME280;56325;47.030;18.518;2023-04-01T00:54:46;99120.53;;;10.52;89.34
69214;BME280;56325;47.030;18.518;2023-04-01T00:57:25;99136.00;;;10.24;90.57
69214;BME280;56325;47.030;18.518;2023-04-01T01:00:04;99124.69;;;10.42;90.30
69214;BME280;56325;47.030;18.518;2023-04-01T01:02:44;99126.94;;;10.44;89.99
69214;BME280;56325;47.030;18.518;2023-04-01T01:05:25;99132.75;;;10.51;89.52
69214;BME280;56325;47.030;18.518;2023-04-01T01:08:15;99131.59;;;10.32;90.51
69214;BME280;56325;47.030;18.518;2023-04-01T01:10:53;99133.91;;;10.39;89.75
69214;BME280;56325;47.030;18.518;2023-04-01T01:13:33;99130.16;;;10.37;90.08
69214;BME280;56325;47.030;18.518;2023-04-01T01:16:15;99134.88;;;10.36;90.18
69214;BME280;56325;47.030;18.518;2023-04-01T01:18:56;99124.91;;;10.18;91.01
69214;BME280;56325;47.030;18.518;2023-04-01T01:21:49;99122.38;;;10.15;91.69
69214;BME280;56325;47.030;18.518;2023-04-01T01:24:43;99129.97;;;10.20;91.02
69214;BME280;56325;47.030;18.518;2023-04-01T01:27:24;99135.16;;;9.98;92.51
69214;BME280;56325;47.030;18.518;2023-04-01T01:30:16;99124.84;;;10.13;92.29
69214;BME280;56325;47.030;18.518;2023-04-01T01:35:59;99114.84;;;10.10;91.94
69214;BME280;56325;47.030;18.518;2023-04-01T01:38:37;99121.97;;;10.02;92.17
69214;BME280;56325;47.030;18.518;2023-04-01T01:41:14;99108.25;;;10.02;92.43
69214;BME280;56325;47.030;18.518;2023-04-01T01:43:51;99112.16;;;9.95;92.60
69214;BME280;56325;47.030;18.518;2023-04-01T01:46:29;99111.34;;;10.09;92.15
69214;BME280;56325;47.030;18.518;2023-04-01T01:49:07;99118.53;;;10.07;91.98
69214;BME280;56325;47.030;18.518;2023-04-01T01:51:44;99114.50;;;10.02;92.43
69214;BME280;56325;47.030;18.518;2023-04-01T01:54:19;99115.13;;;9.92;92.96
69214;BME280;56325;47.030;18.518;2023-04-01T01:56:59;99115.25;;;10.03;91.81
69214;BME280;56325;47.030;18.518;2023-04-01T01:59:39;99116.75;;;10.04;91.96
69214;BME280;56325;47.030;18.518;2023-04-01T02:02:17;99115.81;;;10.07;91.80
69214;BME280;56325;47.030;18.518;2023-04-01T02:04:53;99116.22;;;10.00;91.38
69214;BME280;56325;47.030;18.518;2023-04-01T02:07:32;99108.19;;;9.96;91.57
69214;BME280;56325;47.030;18.518;2023-04-01T02:10:10;99105.22;;;10.00;91.38
69214;BME280;56325;47.030;18.518;2023-04-01T02:12:46;99104.25;;;10.03;91.53
69214;BME280;56325;47.030;18.518;2023-04-01T02:15:26;99100.84;;;10.08;91.38
69214;BME280;56325;47.030;18.518;2023-04-01T02:18:04;99097.53;;;10.04;90.98
69214;BME280;56325;47.030;18.518;2023-04-01T02:20:41;99100.63;;;10.11;90.95
69214;BME280;56325;47.030;18.518;2023-04-01T02:23:17;99096.56;;;10.07;91.60
69214;BME280;56325;47.030;18.518;2023-04-01T02:25:53;99092.38;;;10.11;90.71
69214;BME280;56325;47.030;18.518;2023-04-01T02:28:29;99098.50;;;10.01;91.03
69214;BME280;56325;47.030;18.518;2023-04-01T02:31:08;99093.41;;;10.14;90.58
69214;BME280;56325;47.030;18.518;2023-04-01T02:33:44;99087.63;;;10.12;90.96
69214;BME280;56325;47.030;18.518;2023-04-01T02:36:19;99096.56;;;10.07;90.78
69214;BME280;56325;47.030;18.518;2023-04-01T02:38:56;99087.37;;;10.10;90.88
69214;BME280;56325;47.030;18.518;2023-04-01T02:41:39;99087.19;;;9.93;91.42
69214;BME280;56325;47.030;18.518;2023-04-01T02:44:15;99086.41;;;10.13;90.94
69214;BME280;56325;47.030;18.518;2023-04-01T02:46:49;99080.38;;;10.09;90.93
69214;BME280;56325;47.030;18.518;2023-04-01T02:49:25;99087.25;;;9.99;91.25
69214;BME280;56325;47.030;18.518;2023-04-01T02:51:59;99089.72;;;9.97;91.23
69214;BME280;56325;47.030;18.518;2023-04-01T02:54:35;99099.47;;;9.98;91.24
69214;BME280;56325;47.030;18.518;2023-04-01T02:57:09;99101.19;;;9.95;91.40
69214;BME280;56325;47.030;18.518;2023-04-01T02:59:44;99103.03;;;9.83;91.83
69214;BME280;56325;47.030;18.518;2023-04-01T03:02:19;99104.00;;;10.01;91.49
69214;BME280;56325;47.030;18.518;2023-04-01T03:04:53;99100.03;;;9.81;91.92
69214;BME280;56325;47.030;18.518;2023-04-01T03:07:28;99097.22;;;9.76;92.04
69214;BME280;56325;47.030;18.518;2023-04-01T03:10:05;99103.03;;;9.83;92.20
69214;BME280;56325;47.030;18.518;2023-04-01T03:12:40;99099.25;;;9.81;92.07
69214;BME280;56325;47.030;18.518;2023-04-01T03:15:15;99093.03;;;9.80;91.74
69214;BME280;56325;47.030;18.518;2023-04-01T03:17:49;99090.69;;;9.94;91.56
69214;BME280;56325;47.030;18.518;2023-04-01T03:20:25;99092.66;;;9.93;91.64
69214;BME280;56325;47.030;18.518;2023-04-01T03:22:59;99097.28;;;9.81;91.45
69214;BME280;56325;47.030;18.518;2023-04-01T03:25:35;99094.66;;;9.93;90.81
69214;BME280;56325;47.030;18.518;2023-04-01T03:28:09;99107.28;;;9.84;91.15
69214;BME280;56325;47.030;18.518;2023-04-01T03:30:45;99100.09;;;9.87;90.85
69214;BME280;56325;47.030;18.518;2023-04-01T03:33:20;99099.59;;;9.89;91.04
69214;BME280;56325;47.030;18.518;2023-04-01T03:35:55;99089.72;;;9.97;90.40
69214;BME280;56325;47.030;18.518;2023-04-01T03:38:30;99098.84;;;9.88;90.65
69214;BME280;56325;47.030;18.518;2023-04-01T03:41:06;99105.59;;;9.87;90.83
69214;BME280;56325;47.030;18.518;2023-04-01T03:43:41;99095.88;;;10.12;89.14
69214;BME280;56325;47.030;18.518;2023-04-01T03:46:17;99091.78;;;10.02;89.02
69214;BME280;56325;47.030;18.518;2023-04-01T03:48:52;99098.84;;;9.88;89.67
69214;BME280;56325;47.030;18.518;2023-04-01T03:51:27;99095.69;;;9.75;90.51
69214;BME280;56325;47.030;18.518;2023-04-01T03:54:02;99091.50;;;9.79;90.18
69214;BME280;56325;47.030;18.518;2023-04-01T03:56:38;99096.03;;;9.82;90.44
69214;BME280;56325;47.030;18.518;2023-04-01T03:59:12;99093.75;;;10.01;89.73
69214;BME280;56325;47.030;18.518;2023-04-01T04:01:48;99099.13;;;9.90;89.30
69214;BME280;56325;47.030;18.518;2023-04-01T04:04:23;99090.75;;;9.79;90.00
69214;BME280;56325;47.030;18.518;2023-04-01T04:06:57;99098.34;;;9.29;92.32
69214;BME280;56325;47.030;18.518;2023-04-01T04:09:34;99097.44;;;9.52;92.39
69214;BME280;56325;47.030;18.518;2023-04-01T04:12:10;99091.50;;;9.59;92.00
69214;BME280;56325;47.030;18.518;2023-04-01T04:14:45;99094.19;;;9.74;90.91
69214;BME280;56325;47.030;18.518;2023-04-01T04:17:19;99090.19;;;9.75;90.46
69214;BME280;56325;47.030;18.518;2023-04-01T04:19:54;99087.94;;;9.73;90.58
69214;BME280;56325;47.030;18.518;2023-04-01T04:22:29;99096.78;;;9.83;90.37
69214;BME280;56325;47.030;18.518;2023-04-01T04:25:04;99105.09;;;9.89;89.69
69214;BME280;56325;47.030;18.518;2023-04-01T04:27:40;99099.19;;;9.75;89.63
69214;BME280;56325;47.030;18.518;2023-04-01T04:30:17;99100.78;;;9.82;89.07
69214;BME280;56325;47.030;18.518;2023-04-01T04:32:52;99108.78;;;9.65;89.24
69214;BME280;56325;47.030;18.518;2023-04-01T04:35:26;99100.28;;;9.83;89.04
69214;BME280;56325;47.030;18.518;2023-04-01T04:38:01;99114.78;;;9.84;88.36
69214;BME280;56325;47.030;18.518;2023-04-01T04:40:38;99108.13;;;9.70;89.39
69214;BME280;56325;47.030;18.518;2023-04-01T04:43:16;99104.28;;;9.82;88.41
69214;BME280;56325;47.030;18.518;2023-04-01T04:45:51;99097.19;;;9.96;87.54
69214;BME280;56325;47.030;18.518;2023-04-01T04:48:25;99103.38;;;9.91;87.48
69214;BME280;56325;47.030;18.518;2023-04-01T04:51:01;99114.69;;;9.58;88.62
69214;BME280;56325;47.030;18.518;2023-04-01T04:53:36;99111.06;;;9.67;89.15
69214;BME280;56325;47.030;18.518;2023-04-01T04:56:11;99101.19;;;9.75;88.28
69214;BME280;56325;47.030;18.518;2023-04-01T04:58:48;99116.69;;;9.78;88.19
69214;BME280;56325;47.030;18.518;2023-04-01T05:01:23;99115.53;;;9.84;88.19
69214;BME280;56325;47.030;18.518;2023-04-01T05:03:58;99123.63;;;9.94;88.01
69214;BME280;56325;47.030;18.518;2023-04-01T05:06:33;99127.00;;;9.83;88.43
69214;BME280;56325;47.030;18.518;2023-04-01T05:09:08;99127.00;;;10.03;87.14
69214;BME280;56325;47.030;18.518;2023-04-01T05:11:43;99114.78;;;10.04;87.16
69214;BME280;56325;47.030;18.518;2023-04-01T05:14:19;99124.91;;;10.18;86.69
69214;BME280;56325;47.030;18.518;2023-04-01T05:16:54;99115.81;;;10.07;87.12
69214;BME280;56325;47.030;18.518;2023-04-01T05:19:28;99127.75;;;10.04;86.96
69214;BME280;56325;47.030;18.518;2023-04-01T05:22:04;99129.75;;;10.03;87.61
69214;BME280;56325;47.030;18.518;2023-04-01T05:24:40;99127.88;;;10.15;87.31
69214;BME280;56325;47.030;18.518;2023-04-01T05:27:16;99122.53;;;10.26;86.85
69214;BME280;56325;47.030;18.518;2023-04-01T05:29:52;99121.16;;;10.36;86.72
69214;BME280;56325;47.030;18.518;2023-04-01T05:32:31;99110.91;;;10.37;86.57
69214;BME280;56325;47.030;18.518;2023-04-01T05:35:06;99123.72;;;10.45;86.12
69214;BME280;56325;47.030;18.518;2023-04-01T05:37:41;99117.50;;;10.50;85.77
69214;BME280;56325;47.030;18.518;2023-04-01T05:40:17;99122.31;;;10.56;85.41
69214;BME280;56325;47.030;18.518;2023-04-01T05:42:51;99124.34;;;10.61;85.68
69214;BME280;56325;47.030;18.518;2023-04-01T05:45:28;99122.94;;;10.71;85.33
69214;BME280;56325;47.030;18.518;2023-04-01T05:48:04;99128.72;;;10.73;84.75
69214;BME280;56325;47.030;18.518;2023-04-01T05:50:40;99126.50;;;10.77;84.39
69214;BME280;56325;47.030;18.518;2023-04-01T05:53:15;99127.47;;;10.74;85.28
69214;BME280;56325;47.030;18.518;2023-04-01T05:55:50;99130.50;;;10.76;84.98
69214;BME280;56325;47.030;18.518;2023-04-01T05:58:24;99126.84;;;10.59;85.67
69214;BME280;56325;47.030;18.518;2023-04-01T06:02:51;99120.06;;;11.17;84.70
69214;BME280;56325;47.030;18.518;2023-04-01T06:05:29;99120.06;;;11.17;84.70
69214;BME280;56325;47.030;18.518;2023-04-01T06:08:10;99134.44;;;10.69;86.41
69214;BME280;56325;47.030;18.518;2023-04-01T06:10:55;99124.47;;;10.72;86.36
69214;BME280;56325;47.030;18.518;2023-04-01T06:13:44;99125.66;;;10.65;86.93
69214;BME280;56325;47.030;18.518;2023-04-01T06:16:27;99129.75;;;10.75;86.97
69214;BME280;56325;47.030;18.518;2023-04-01T06:19:13;99129.91;;;10.66;86.57
69214;BME280;56325;47.030;18.518;2023-04-01T06:22:13;99128.78;;;10.78;86.57
69214;BME280;56325;47.030;18.518;2023-04-01T06:27:59;99131.13;;;10.91;85.84
69214;BME280;56325;47.030;18.518;2023-04-01T06:30:43;99134.28;;;10.78;86.24
69214;BME280;56325;47.030;18.518;2023-04-01T06:33:30;99130.53;;;10.81;86.18
69214;BME280;56325;47.030;18.518;2023-04-01T06:39:35;99128.91;;;10.95;85.20
69214;BME280;56325;47.030;18.518;2023-04-01T06:42:35;99136.53;;;10.80;86.49
69214;BME280;56325;47.030;18.518;2023-04-01T06:45:27;99140.09;;;10.86;85.86
69214;BME280;56325;47.030;18.518;2023-04-01T06:48:25;99142.09;;;12.02;93.21
69214;BME280;56325;47.030;18.518;2023-04-01T06:51:19;99133.47;;;11.78;83.49
69214;BME280;56325;47.030;18.518;2023-04-01T06:54:04;99138.31;;;11.57;83.18
69214;BME280;56325;47.030;18.518;2023-04-01T06:56:50;99136.69;;;11.34;83.96
69214;BME280;56325;47.030;18.518;2023-04-01T06:59:32;99141.19;;;11.37;83.69
69214;BME280;56325;47.030;18.518;2023-04-01T07:02:18;99137.88;;;11.22;84.71
69214;BME280;56325;47.030;18.518;2023-04-01T07:04:57;99129.34;;;11.20;85.14
69214;BME280;56325;47.030;18.518;2023-04-01T07:07:36;99137.78;;;11.10;85.22
69214;BME280;56325;47.030;18.518;2023-04-01T07:10:17;99138.13;;;11.24;85.02
69214;BME280;56325;47.030;18.518;2023-04-01T07:13:02;99145.38;;;11.27;83.92
69214;BME280;56325;47.030;18.518;2023-04-01T07:15:54;99150.44;;;11.34;83.60
69214;BME280;56325;47.030;18.518;2023-04-01T07:18:38;99157.66;;;11.26;84.66
69214;BME280;56325;47.030;18.518;2023-04-01T07:21:22;99151.62;;;11.22;83.77
69214;BME280;56325;47.030;18.518;2023-04-01T07:24:03;99163.56;;;11.50;83.47
69214;BME280;56325;47.030;18.518;2023-04-01T07:26:40;99154.87;;;11.63;83.40
69214;BME280;56325;47.030;18.518;2023-04-01T07:29:15;99156.78;;;11.45;82.58
69214;BME280;56325;47.030;18.518;2023-04-01T07:32:09;99162.19;;;11.71;82.44
69214;BME280;56325;47.030;18.518;2023-04-01T07:34:53;99157.97;;;11.76;83.64
69214;BME280;56325;47.030;18.518;2023-04-01T07:37:35;99158.06;;;12.74;90.85
69214;BME280;56325;47.030;18.518;2023-04-01T07:40:22;99159.00;;;12.49;78.26
69214;BME280;56325;47.030;18.518;2023-04-01T07:43:24;99166.72;;;12.34;75.60
69214;BME280;56325;47.030;18.518;2023-04-01T07:46:09;99165.78;;;12.59;78.97
69214;BME280;56325;47.030;18.518;2023-04-01T07:48:53;99164.00;;;12.39;74.68
69214;BME280;56325;47.030;18.518;2023-04-01T07:51:34;99162.75;;;12.40;75.27
69214;BME280;56325;47.030;18.518;2023-04-01T07:54:17;99164.75;;;12.40;73.84
69214;BME280;56325;47.030;18.518;2023-04-01T07:56:58;99157.50;;;12.54;76.22
69214;BME280;56325;47.030;18.518;2023-04-01T07:59:41;99162.03;;;12.62;73.93
69214;BME280;56325;47.030;18.518;2023-04-01T08:02:26;99171.59;;;12.67;74.29
69214;BME280;56325;47.030;18.518;2023-04-01T08:05:14;99165.28;;;12.55;72.42
69214;BME280;56325;47.030;18.518;2023-04-01T08:07:58;99172.31;;;12.56;73.95
69214;BME280;56325;47.030;18.518;2023-04-01T08:10:48;99168.31;;;12.57;73.85
69214;BME280;56325;47.030;18.518;2023-04-01T08:13:35;99161.81;;;12.66;71.96
69214;BME280;56325;47.030;18.518;2023-04-01T08:16:27;99165.78;;;12.54;72.28
69214;BME280;56325;47.030;18.518;2023-04-01T08:19:12;99172.28;;;12.51;69.65
69214;BME280;56325;47.030;18.518;2023-04-01T08:21:52;99157.50;;;12.54;70.24
69214;BME280;56325;47.030;18.518;2023-04-01T08:24:31;99165.53;;;12.52;69.85
69214;BME280;56325;47.030;18.518;2023-04-01T08:27:23;99161.31;;;12.67;68.65
69214;BME280;56325;47.030;18.518;2023-04-01T08:30:04;99161.78;;;12.60;68.25
69214;BME280;56325;47.030;18.518;2023-04-01T08:32:48;99165.03;;;12.59;67.42
69214;BME280;56325;47.030;18.518;2023-04-01T08:35:29;99158.81;;;12.75;68.05
69214;BME280;56325;47.030;18.518;2023-04-01T08:38:13;99161.06;;;12.82;67.36
69214;BME280;56325;47.030;18.518;2023-04-01T08:41:01;99160.53;;;12.61;68.00
69214;BME280;56325;47.030;18.518;2023-04-01T08:43:54;99159.81;;;12.83;68.75
69214;BME280;56325;47.030;18.518;2023-04-01T08:47:20;99152.03;;;12.76;67.43
69214;BME280;56325;47.030;18.518;2023-04-01T08:50:23;99155.53;;;12.71;66.93
69214;BME280;56325;47.030;18.518;2023-04-01T08:53:06;99160.06;;;12.85;65.85
69214;BME280;56325;47.030;18.518;2023-04-01T08:55:53;99152.81;;;12.93;66.71
69214;BME280;56325;47.030;18.518;2023-04-01T08:58:56;99162.06;;;13.01;67.71
69214;BME280;56325;47.030;18.518;2023-04-01T09:01:55;99156.03;;;13.08;66.04
69214;BME280;56325;47.030;18.518;2023-04-01T09:04:42;99150.03;;;13.10;66.78
69214;BME280;56325;47.030;18.518;2023-04-01T09:07:35;99141.00;;;13.15;66.10
69214;BME280;56325;47.030;18.518;2023-04-01T09:10:42;99149.28;;;13.26;65.47
69214;BME280;56325;47.030;18.518;2023-04-01T09:13:34;99143.25;;;13.28;65.09
69214;BME280;56325;47.030;18.518;2023-04-01T09:16:34;99153.56;;;13.16;64.82
69214;BME280;56325;47.030;18.518;2023-04-01T09:19:28;99139.00;;;13.21;66.41
69214;BME280;56325;47.030;18.518;2023-04-01T09:25:32;99151.78;;;13.47;65.42
69214;BME280;56325;47.030;18.518;2023-04-01T09:28:14;99142.00;;;13.45;64.47
69214;BME280;56325;47.030;18.518;2023-04-01T09:31:19;99154.03;;;13.59;63.40
69214;BME280;56325;47.030;18.518;2023-04-01T09:34:24;99154.72;;;13.76;64.17
69214;BME280;56325;47.030;18.518;2023-04-01T09:37:18;99146.44;;;13.76;65.01
69214;BME280;56325;47.030;18.518;2023-04-01T09:40:09;99149.44;;;13.84;63.16
69214;BME280;56325;47.030;18.518;2023-04-01T09:43:06;99149.44;;;13.78;62.44
69214;BME280;56325;47.030;18.518;2023-04-01T09:45:58;99161.53;;;13.64;62.48
69214;BME280;56325;47.030;18.518;2023-04-01T09:49:17;99154.72;;;13.76;63.91
69214;BME280;56325;47.030;18.518;2023-04-01T09:52:10;99151.72;;;13.80;63.44
69214;BME280;56325;47.030;18.518;2023-04-01T09:55:14;99150.47;;;13.75;62.83
69214;BME280;56325;47.030;18.518;2023-04-01T10:01:39;99158.25;;;13.71;61.40
69214;BME280;56325;47.030;18.518;2023-04-01T10:04:56;99162.28;;;13.65;62.05
69214;BME280;56325;47.030;18.518;2023-04-01T10:14:07;99158.75;;;13.81;63.21
69214;BME280;56325;47.030;18.518;2023-04-01T10:17:15;99141.34;;;13.92;62.64
69214;BME280;56325;47.030;18.518;2023-04-01T10:26:36;99143.97;;;14.25;60.59
69214;BME280;56325;47.030;18.518;2023-04-01T10:29:38;99140.69;;;14.27;61.24
69214;BME280;56325;47.030;18.518;2023-04-01T10:32:47;99144.00;;;14.20;60.85
69214;BME280;56325;47.030;18.518;2023-04-01T10:36:01;99141.31;;;14.03;60.53
69214;BME280;56325;47.030;18.518;2023-04-01T10:39:02;99144.66;;;13.85;60.68
69214;BME280;56325;47.030;18.518;2023-04-01T10:48:13;99164.03;;;12.62;70.48
69214;BME280;56325;47.030;18.518;2023-04-01T10:51:17;99169.09;;;12.80;71.00
69214;BME280;56325;47.030;18.518;2023-04-01T10:54:20;99160.56;;;12.89;71.00
69214;BME280;56325;47.030;18.518;2023-04-01T10:57:18;99167.09;;;13.03;72.48
69214;BME280;56325;47.030;18.518;2023-04-01T11:00:39;99159.84;;;13.28;72.74
69214;BME280;56325;47.030;18.518;2023-04-01T11:07:30;99142.22;;;13.64;70.79
69214;BME280;56325;47.030;18.518;2023-04-01T11:20:46;99143.97;;;13.67;63.23
69214;BME280;56325;47.030;18.518;2023-04-01T11:26:47;99145.72;;;13.59;64.32
69214;BME280;56325;47.030;18.518;2023-04-01T11:29:47;99132.16;;;13.61;63.83
69214;BME280;56325;47.030;18.518;2023-04-01T11:32:46;99134.44;;;13.63;62.65
69214;BME280;56325;47.030;18.518;2023-04-01T11:35:36;99142.81;;;13.98;65.96
69214;BME280;56325;47.030;18.518;2023-04-01T11:38:22;99147.34;;;14.01;62.63
69214;BME280;56325;47.030;18.518;2023-04-01T11:41:26;99135.91;;;13.69;63.46
69214;BME280;56325;47.030;18.518;2023-04-01T11:44:16;99149.25;;;13.54;63.74
69214;BME280;56325;47.030;18.518;2023-04-01T11:47:18;99143.44;;;13.74;60.99
69214;BME280;56325;47.030;18.518;2023-04-01T11:50:10;99148.34;;;14.04;60.77
69214;BME280;56325;47.030;18.518;2023-04-01T11:53:05;99149.28;;;14.18;59.89
69214;BME280;56325;47.030;18.518;2023-04-01T11:55:54;99147.00;;;14.22;60.29
69214;BME280;56325;47.030;18.518;2023-04-01T11:58:41;99150.62;;;14.58;60.61
69214;BME280;56325;47.030;18.518;2023-04-01T12:01:49;99156.72;;;14.39;59.33
69214;BME280;56325;47.030;18.518;2023-04-01T12:04:54;99150.78;;;14.19;60.11
69214;BME280;56325;47.030;18.518;2023-04-01T12:07:49;99143.78;;;14.12;60.19
69214;BME280;56325;47.030;18.518;2023-04-01T12:10:33;99160.25;;;14.40;60.86
69214;BME280;56325;47.030;18.518;2023-04-01T12:13:23;99157.47;;;14.46;61.04
69214;BME280;56325;47.030;18.518;2023-04-01T12:16:14;99148.37;;;14.51;59.19
69214;BME280;56325;47.030;18.518;2023-04-01T12:18:56;99147.69;;;14.33;58.10
69214;BME280;56325;47.030;18.518;2023-04-01T12:21:36;99148.97;;;14.32;59.11
69214;BME280;56325;47.030;18.518;2023-04-01T12:24:26;99153.22;;;14.33;56.94
69214;BME280;56325;47.030;18.518;2023-04-01T12:27:19;99153.72;;;14.37;58.08
69214;BME280;56325;47.030;18.518;2023-04-01T12:30:34;99153.00;;;14.31;57.94
69214;BME280;56325;47.030;18.518;2023-04-01T12:33:37;99145.41;;;14.37;57.92
69214;BME280;56325;47.030;18.518;2023-04-01T12:36:46;99149.31;;;14.64;56.47
69214;BME280;56325;47.030;18.518;2023-04-01T12:39:57;99131.94;;;14.99;56.56
69214;BME280;56325;47.030;18.518;2023-04-01T12:42:47;99136.47;;;15.27;55.43
69214;BME280;56325;47.030;18.518;2023-04-01T12:45:30;99137.97;;;15.28;53.44
69214;BME280;56325;47.030;18.518;2023-04-01T12:48:29;99136.28;;;15.19;53.12
69214;BME280;56325;47.030;18.518;2023-04-01T12:51:26;99134.94;;;15.01;54.13
69214;BME280;56325;47.030;18.518;2023-04-01T12:54:17;99122.50;;;15.14;54.07
69214;BME280;56325;47.030;18.518;2023-04-01T12:57:08;99134.59;;;15.11;52.73
69214;BME280;56325;47.030;18.518;2023-04-01T12:59:56;99121.94;;;15.21;52.14
69214;BME280;56325;47.030;18.518;2023-04-01T13:02:45;99128.12;;;15.32;54.21
69214;BME280;56325;47.030;18.518;2023-04-01T13:05:37;99124.37;;;15.00;53.48
69214;BME280;56325;47.030;18.518;2023-04-01T13:08:27;99129.44;;;15.26;53.41
69214;BME280;56325;47.030;18.518;2023-04-01T13:11:09;99128.16;;;15.27;53.73
69214;BME280;56325;47.030;18.518;2023-04-01T13:17:19;99116.69;;;16.09;51.90
69214;BME280;56325;47.030;18.518;2023-04-01T13:20:00;99116.78;;;16.22;49.13
69214;BME280;56325;47.030;18.518;2023-04-01T13:22:51;99128.31;;;16.45;50.51
69214;BME280;56325;47.030;18.518;2023-04-01T13:25:36;99119.88;;;16.51;48.76
69214;BME280;56325;47.030;18.518;2023-04-01T13:28:17;99122.44;;;16.99;52.63
69214;BME280;56325;47.030;18.518;2023-04-01T13:31:00;99127.56;;;16.95;49.56
69214;BME280;56325;47.030;18.518;2023-04-01T13:33:40;99118.34;;;16.87;48.84
69214;BME280;56325;47.030;18.518;2023-04-01T13:36:26;99120.78;;;16.78;47.58
69214;BME280;56325;47.030;18.518;2023-04-01T13:39:32;99118.63;;;17.02;48.74
69214;BME280;56325;47.030;18.518;2023-04-01T13:42:16;99119.72;;;17.13;48.32
69214;BME280;56325;47.030;18.518;2023-04-01T13:44:57;99121.44;;;17.16;48.97
69214;BME280;56325;47.030;18.518;2023-04-01T13:47:58;99122.41;;;17.31;48.87
69214;BME280;56325;47.030;18.518;2023-04-01T13:50:57;99119.75;;;17.52;48.52
69214;BME280;56325;47.030;18.518;2023-04-01T13:53:51;99110.22;;;17.34;46.67
69214;BME280;56325;47.030;18.518;2023-04-01T13:56:43;99112.84;;;17.00;48.80
69214;BME280;56325;47.030;18.518;2023-04-01T14:03:17;99092.19;;;16.32;49.47
69214;BME280;56325;47.030;18.518;2023-04-01T14:09:25;99108.59;;;15.92;51.26
69214;BME280;56325;47.030;18.518;2023-04-01T14:12:07;99101.63;;;16.04;53.51
69214;BME280;56325;47.030;18.518;2023-04-01T14:14:58;99103.13;;;16.05;51.91
69214;BME280;56325;47.030;18.518;2023-04-01T14:17:50;99095.44;;;16.49;50.17
69214;BME280;56325;47.030;18.518;2023-04-01T14:20:36;99102.59;;;17.09;52.45
69214;BME280;56325;47.030;18.518;2023-04-01T14:23:30;99102.31;;;17.52;47.54
69214;BME280;56325;47.030;18.518;2023-04-01T14:29:26;99097.69;;;16.51;49.04
69214;BME280;56325;47.030;18.518;2023-04-01T14:32:09;99100.41;;;16.00;49.32
69214;BME280;56325;47.030;18.518;2023-04-01T14:34:55;99098.72;;;16.16;48.84
69214;BME280;56325;47.030;18.518;2023-04-01T14:37:47;99094.34;;;16.90;48.03
69214;BME280;56325;47.030;18.518;2023-04-01T14:40:28;99099.53;;;17.25;47.14
69214;BME280;56325;47.030;18.518;2023-04-01T14:43:20;99091.09;;;17.44;46.37
69214;BME280;56325;47.030;18.518;2023-04-01T14:46:28;99096.97;;;17.54;44.84
69214;BME280;56325;47.030;18.518;2023-04-01T14:49:15;99094.63;;;17.58;45.87
69214;BME280;56325;47.030;18.518;2023-04-01T14:51:54;99088.88;;;17.69;44.00
69214;BME280;56325;47.030;18.518;2023-04-01T14:54:34;99089.50;;;18.22;43.32
69214;BME280;56325;47.030;18.518;2023-04-01T14:57:12;99081.03;;;18.07;44.59
69214;BME280;56325;47.030;18.518;2023-04-01T14:59:48;99086.41;;;18.26;46.84
69214;BME280;56325;47.030;18.518;2023-04-01T15:02:46;99085.44;;;18.23;50.57
69214;BME280;56325;47.030;18.518;2023-04-01T15:05:36;99088.09;;;18.29;43.72
69214;BME280;56325;47.030;18.518;2023-04-01T15:08:16;99081.84;;;18.15;44.06
69214;BME280;56325;47.030;18.518;2023-04-01T15:11:13;99093.25;;;17.78;45.04
69214;BME280;56325;47.030;18.518;2023-04-01T15:14:09;99102.75;;;17.29;47.18
69214;BME280;56325;47.030;18.518;2023-04-01T15:16:52;99101.25;;;16.83;46.81
69214;BME280;56325;47.030;18.518;2023-04-01T15:19:38;99105.47;;;16.52;47.83
69214;BME280;56325;47.030;18.518;2023-04-01T15:22:31;99100.47;;;17.01;46.30
69214;BME280;56325;47.030;18.518;2023-04-01T15:25:23;99100.50;;;17.28;44.37
69214;BME280;56325;47.030;18.518;2023-04-01T15:28:10;99092.38;;;17.56;44.38
69214;BME280;56325;47.030;18.518;2023-04-01T15:30:56;99088.06;;;18.08;44.98